Pagrindinis puslapis
METAR-TAF:

METAR-TAF

Oro uostai :

Sivasas, Turkija

platuma: 39-45N, ilguma: 037-01E, Aukštis: 1285 m

Dabartinis oras

Ataskaita buvo paskelbta 1 valandą ir 18 minutes, ne 20:50 UTC
Vėjas 6 kt iš Pietvakarių
Temperatūra 8°C
Drėgmė 71%
Slėgis 1016 hPa
Matomumas 10 km arba daugiau
Išsisklaidę debesys ne aukštis 3700 ft

METAR: LTAR 172050Z 23006KT 9999 SCT037 08/03 Q1016

Laikas: 01:08 (22:08 UTC)

Prognozė

Ataskaita buvo paskelbta 2 valandos ir 28 minutes, ne 19:40 UTC
Prognozė galioja nuo 17 metu 21 UTC su 18 metu 06 UTC
Vėjas 2 kt nuo kintamojo kryptimis
Matomumas 10 km arba daugiau
nėra debesų žemiau 1500 m ir nėra kamuolinių lietaus debesų

TAF: LTAR 171940Z 1721/1806 VRB02KT CAVOK

Orai ataskaitas ir orų prognozės (METAR, TAF).

turimą stotys yra geltonos ir raudonos taškus žemėlapyje.

Perkelti pele per norėdami pamatyti stoties vardą.

Tada spustelėkite, norėdami matyti oro stebėjimo ir prognozės.

Norėdami pakeisti žemėlapį: spustelėkite ant žalios mygtukų su juodo kryžiaus žemyn,; žalią mygtuką su brūkšneliu, jei norite nutolinti; arba žalių rodyklių gretimoms žemėlapius.


METAR-TAF: